createdAt,value
2023-02-05T00:02:03.834Z,25.13
2023-02-05T00:04:31.172Z,31.20
2023-02-05T00:06:58.446Z,16.83
2023-02-05T00:09:26.009Z,22.00
2023-02-05T00:11:53.231Z,22.52
2023-02-05T00:14:21.336Z,31.10
2023-02-05T00:16:48.796Z,17.58
2023-02-05T00:19:16.110Z,23.02
2023-02-05T00:21:44.333Z,21.40
2023-02-05T00:24:12.017Z,17.15
2023-02-05T00:26:40.642Z,14.25
2023-02-05T00:29:07.903Z,25.60
2023-02-05T00:31:35.333Z,15.05
2023-02-05T00:34:02.633Z,13.65
2023-02-05T00:36:29.945Z,24.30
2023-02-05T00:38:57.348Z,18.77
2023-02-05T00:41:25.079Z,14.63
2023-02-05T00:43:52.259Z,23.65
2023-02-05T00:46:19.676Z,23.35
2023-02-05T00:48:47.300Z,26.65
2023-02-05T00:51:14.778Z,17.55
2023-02-05T00:53:42.480Z,17.40
2023-02-05T00:56:09.665Z,15.73
2023-02-05T00:58:37.151Z,33.22
2023-02-05T01:01:04.984Z,40.67
2023-02-05T01:03:33.315Z,19.65
2023-02-05T01:06:03.214Z,27.92
2023-02-05T01:08:30.996Z,28.08
2023-02-05T01:10:58.691Z,15.75
2023-02-05T01:13:26.109Z,31.95
2023-02-05T01:15:53.626Z,22.52
2023-02-05T01:18:20.927Z,25.75
2023-02-05T01:20:48.246Z,28.65
2023-02-05T01:23:15.705Z,29.40
2023-02-05T01:25:42.925Z,18.35
2023-02-05T01:28:10.213Z,24.80
2023-02-05T01:30:37.993Z,26.75
2023-02-05T01:33:05.198Z,18.70
2023-02-05T01:35:33.140Z,31.83
2023-02-05T01:38:01.005Z,35.70
2023-02-05T01:40:28.608Z,25.83
2023-02-05T01:42:55.808Z,20.85
2023-02-05T01:45:23.020Z,19.90
2023-02-05T01:47:55.934Z,19.40
2023-02-05T01:50:43.455Z,28.45
2023-02-05T01:53:16.910Z,22.95
2023-02-05T01:55:51.807Z,25.98
2023-02-05T01:58:19.739Z,23.98
2023-02-05T02:00:47.771Z,18.45
2023-02-05T02:03:15.986Z,35.53
2023-02-05T02:05:43.478Z,18.02
2023-02-05T02:08:13.051Z,20.75
2023-02-05T02:10:43.754Z,11.23
2023-02-05T02:13:13.078Z,17.23
2023-02-05T02:15:41.212Z,14.32
2023-02-05T02:18:28.357Z,17.85
2023-02-05T02:21:23.072Z,22.05
2023-02-05T02:23:56.512Z,32.20
2023-02-05T02:26:26.893Z,10.13
2023-02-05T02:29:01.808Z,20.60
2023-02-05T02:31:38.544Z,35.70
2023-02-05T02:34:25.521Z,16.35
2023-02-05T02:36:59.736Z,14.70
2023-02-05T02:39:34.127Z,15.15
2023-02-05T02:42:13.690Z,14.77
2023-02-05T02:44:48.512Z,17.80
2023-02-05T02:47:22.039Z,14.80
2023-02-05T02:49:58.561Z,15.50
2023-02-05T02:52:29.635Z,18.90
2023-02-05T02:55:00.684Z,15.77
2023-02-05T02:57:29.347Z,22.95
2023-02-05T03:00:01.167Z,20.33
2023-02-05T03:02:35.322Z,11.07
2023-02-05T03:05:08.835Z,18.33
2023-02-05T03:07:45.072Z,13.60
2023-02-05T03:10:55.037Z,12.82
2023-02-05T03:13:22.972Z,13.98
2023-02-05T03:15:56.262Z,20.15
2023-02-05T03:18:24.737Z,16.00
2023-02-05T03:21:09.223Z,15.15
2023-02-05T03:23:36.468Z,12.32
2023-02-05T03:26:03.995Z,15.00
2023-02-05T03:28:40.492Z,13.75
2023-02-05T03:31:22.404Z,10.48
2023-02-05T03:34:01.121Z,11.30
2023-02-05T03:36:43.327Z,9.32
2023-02-05T03:39:18.606Z,8.30
2023-02-05T03:42:11.001Z,11.52
2023-02-05T03:45:00.182Z,9.38
2023-02-05T03:47:58.059Z,4.50
2023-02-05T03:50:33.246Z,7.78
2023-02-05T03:53:36.999Z,9.88
2023-02-05T03:56:28.724Z,10.23
2023-02-05T03:58:58.514Z,12.70
2023-02-05T04:01:27.859Z,9.80
2023-02-05T04:03:55.523Z,13.25
2023-02-05T04:06:23.931Z,10.60
2023-02-05T04:08:53.815Z,6.07
2023-02-05T04:11:21.206Z,6.72
2023-02-05T04:13:49.386Z,10.55
2023-02-05T04:16:16.741Z,12.52
2023-02-05T04:18:44.024Z,11.07
2023-02-05T04:21:11.500Z,12.10
2023-02-05T04:23:41.722Z,22.33
2023-02-05T04:26:09.422Z,11.10
2023-02-05T04:28:43.993Z,11.95
2023-02-05T04:31:12.756Z,10.05
2023-02-05T04:33:42.656Z,18.88
2023-02-05T04:36:12.404Z,10.40
2023-02-05T04:38:40.350Z,9.55
2023-02-05T04:41:08.175Z,16.27
2023-02-05T04:43:35.540Z,17.92
2023-02-05T04:46:10.395Z,8.23
2023-02-05T04:48:38.836Z,8.10
2023-02-05T04:51:07.699Z,10.57
2023-02-05T04:53:34.940Z,8.18
2023-02-05T04:56:06.139Z,9.95
2023-02-05T04:58:33.456Z,12.88
2023-02-05T05:01:00.912Z,18.27
2023-02-05T05:03:28.167Z,12.88
2023-02-05T05:05:55.387Z,12.10
2023-02-05T05:08:22.980Z,6.47
2023-02-05T05:10:50.248Z,11.18
2023-02-05T05:13:17.537Z,13.23
2023-02-05T05:15:44.802Z,10.98
2023-02-05T05:18:12.141Z,9.77
2023-02-05T05:20:40.751Z,8.20
2023-02-05T05:23:09.705Z,5.68
2023-02-05T05:25:42.525Z,19.20
2023-02-05T05:28:09.939Z,10.05
2023-02-05T05:30:41.991Z,12.88
2023-02-05T05:33:09.536Z,7.35
2023-02-05T05:35:37.145Z,15.15
2023-02-05T05:38:04.838Z,11.68
2023-02-05T05:40:51.745Z,13.95
2023-02-05T05:43:39.583Z,15.60
2023-02-05T05:46:08.270Z,14.50
2023-02-05T05:48:35.755Z,18.80
2023-02-05T05:51:03.357Z,14.98
2023-02-05T05:53:31.807Z,22.23
2023-02-05T05:55:59.580Z,20.17
2023-02-05T05:58:27.240Z,16.98
2023-02-05T06:00:56.849Z,15.93
2023-02-05T06:03:24.321Z,8.02
2023-02-05T06:05:51.598Z,12.00
2023-02-05T06:08:18.913Z,13.90
2023-02-05T06:10:46.233Z,12.35
2023-02-05T06:13:13.797Z,17.42
2023-02-05T06:15:41.563Z,13.15
2023-02-05T06:18:08.690Z,14.55
2023-02-05T06:20:36.322Z,17.08
2023-02-05T06:23:03.618Z,7.53
2023-02-05T06:25:30.953Z,11.98
2023-02-05T06:27:58.662Z,15.80
2023-02-05T06:30:26.082Z,29.70
2023-02-05T06:32:53.385Z,17.88
2023-02-05T06:35:20.716Z,15.00
2023-02-05T06:37:48.112Z,14.38
2023-02-05T06:40:18.194Z,19.42
2023-02-05T06:42:45.872Z,6.93
2023-02-05T06:45:13.113Z,16.30
2023-02-05T06:47:40.420Z,24.65
2023-02-05T06:50:08.012Z,13.77
2023-02-05T06:52:35.461Z,15.98
2023-02-05T06:55:02.871Z,20.63
2023-02-05T06:57:31.834Z,18.67
2023-02-05T06:59:59.584Z,12.60
2023-02-05T07:02:27.028Z,11.35
2023-02-05T07:04:54.255Z,15.82
2023-02-05T07:07:21.565Z,10.68
2023-02-05T07:09:49.305Z,23.25
2023-02-05T07:12:16.491Z,16.73
2023-02-05T07:14:43.877Z,13.43
2023-02-05T07:17:11.586Z,20.90
2023-02-05T07:19:38.866Z,20.05
2023-02-05T07:22:06.147Z,13.27
2023-02-05T07:24:33.398Z,12.02
2023-02-05T07:27:00.698Z,20.25
2023-02-05T07:29:28.253Z,17.55
2023-02-05T07:31:55.532Z,25.52
2023-02-05T07:34:22.977Z,6.63
2023-02-05T07:36:51.707Z,13.57
2023-02-05T07:39:19.891Z,23.92
2023-02-05T07:41:47.473Z,19.52
2023-02-05T07:44:25.340Z,11.32
2023-02-05T07:46:52.577Z,25.42
2023-02-05T07:49:19.837Z,28.98
2023-02-05T07:51:47.756Z,24.15
2023-02-05T07:54:15.716Z,15.57
2023-02-05T07:56:43.266Z,23.90
2023-02-05T07:59:10.616Z,44.50
2023-02-05T08:01:37.848Z,20.42
2023-02-05T08:04:05.177Z,10.30
2023-02-05T08:06:33.604Z,19.02
2023-02-05T08:09:00.977Z,16.80
2023-02-05T08:11:28.330Z,12.98
2023-02-05T08:13:55.553Z,21.35
2023-02-05T08:16:22.885Z,18.33
2023-02-05T08:18:50.778Z,17.10
2023-02-05T08:21:19.366Z,23.08
2023-02-05T08:23:46.652Z,20.17
2023-02-05T08:26:15.593Z,21.55
2023-02-05T08:28:43.406Z,16.63
2023-02-05T08:31:16.162Z,31.95
2023-02-05T08:33:43.934Z,21.17
2023-02-05T08:36:11.573Z,27.52
2023-02-05T08:38:38.943Z,24.02
2023-02-05T08:41:14.300Z,17.83
2023-02-05T08:43:43.875Z,26.08
2023-02-05T08:46:12.727Z,31.98
2023-02-05T08:48:40.408Z,22.75
2023-02-05T08:51:10.875Z,20.77
2023-02-05T08:53:38.622Z,17.48
2023-02-05T08:56:06.984Z,29.45
2023-02-05T08:58:34.621Z,48.88
2023-02-05T09:01:07.137Z,28.13
2023-02-05T09:03:34.415Z,15.77
2023-02-05T09:06:05.657Z,11.52
2023-02-05T09:08:32.981Z,22.70
2023-02-05T09:11:00.456Z,17.58
2023-02-05T09:13:27.754Z,15.30
2023-02-05T09:15:55.127Z,32.08
2023-02-05T09:18:22.538Z,31.73
2023-02-05T09:20:50.668Z,11.68
2023-02-05T09:23:18.974Z,20.55
2023-02-05T09:25:46.433Z,15.82
2023-02-05T09:28:15.034Z,27.25
2023-02-05T09:30:45.600Z,16.40
2023-02-05T09:33:14.245Z,23.15
2023-02-05T09:35:42.248Z,16.13
2023-02-05T09:38:13.643Z,24.60
2023-02-05T09:41:05.432Z,20.23
2023-02-05T09:43:50.679Z,12.52
2023-02-05T09:46:31.918Z,27.15
2023-02-05T09:49:21.233Z,25.55
2023-02-05T09:51:52.890Z,24.35
2023-02-05T09:54:28.070Z,29.27
2023-02-05T09:57:03.391Z,33.90
2023-02-05T09:59:32.790Z,13.13
2023-02-05T10:02:22.576Z,14.48
2023-02-05T10:04:57.684Z,30.10
2023-02-05T10:07:45.924Z,33.22
2023-02-05T10:10:25.269Z,27.90
2023-02-05T10:13:21.489Z,29.02
2023-02-05T10:16:23.260Z,54.28
2023-02-05T10:19:20.023Z,22.73
2023-02-05T10:22:00.644Z,17.40
2023-02-05T10:24:55.739Z,20.10
2023-02-05T10:27:27.859Z,31.20
2023-02-05T10:30:06.480Z,23.88
2023-02-05T10:33:05.364Z,26.17
2023-02-05T10:35:49.759Z,18.75
2023-02-05T10:38:25.273Z,45.38
2023-02-05T10:40:59.340Z,34.50
2023-02-05T10:43:43.092Z,20.27
2023-02-05T10:46:14.838Z,26.48
2023-02-05T10:49:12.108Z,27.45
2023-02-05T10:51:44.688Z,29.98
2023-02-05T10:54:33.760Z,26.73
2023-02-05T10:57:01.515Z,22.73
2023-02-05T10:59:31.322Z,32.13
2023-02-05T11:02:03.879Z,24.60
2023-02-05T11:04:42.308Z,30.45
2023-02-05T11:07:32.377Z,19.98
2023-02-05T11:10:17.673Z,28.98
2023-02-05T11:12:51.928Z,23.10
2023-02-05T11:15:23.721Z,23.30
2023-02-05T11:18:21.777Z,26.23
2023-02-05T11:20:56.768Z,28.40
2023-02-05T11:23:26.427Z,17.40
2023-02-05T11:26:08.314Z,18.08
2023-02-05T11:28:41.235Z,20.40
2023-02-05T11:31:27.064Z,30.70
2023-02-05T11:34:16.869Z,32.65
2023-02-05T11:36:57.391Z,30.80
2023-02-05T11:39:39.401Z,20.70
2023-02-05T11:42:20.074Z,16.02
2023-02-05T11:44:55.026Z,26.83
2023-02-05T11:47:46.110Z,36.88
2023-02-05T11:50:25.846Z,19.48
2023-02-05T11:52:55.677Z,14.63
2023-02-05T11:55:32.170Z,14.45
2023-02-05T11:58:03.088Z,18.58
2023-02-05T12:00:31.034Z,25.92
2023-02-05T12:03:17.984Z,28.60
2023-02-05T12:06:04.566Z,23.67
2023-02-05T12:08:51.739Z,17.77
2023-02-05T12:11:54.673Z,18.63
2023-02-05T12:14:37.380Z,17.98
2023-02-05T12:17:29.817Z,16.27
2023-02-05T12:20:03.630Z,18.42
2023-02-05T12:23:06.180Z,26.85
2023-02-05T12:25:50.276Z,18.83
2023-02-05T12:28:18.177Z,16.13
2023-02-05T12:31:10.679Z,27.35
2023-02-05T12:33:57.496Z,10.90
2023-02-05T12:36:44.583Z,17.23
2023-02-05T12:39:31.232Z,20.13
2023-02-05T12:42:22.373Z,17.70
2023-02-05T12:45:01.775Z,12.93
2023-02-05T12:48:01.926Z,22.40
2023-02-05T12:51:03.020Z,37.03
2023-02-05T12:53:42.519Z,18.73
2023-02-05T12:56:38.856Z,21.30
2023-02-05T12:59:18.818Z,20.02
2023-02-05T13:01:52.978Z,19.48
2023-02-05T13:04:27.137Z,12.52
2023-02-05T13:07:08.488Z,20.20
2023-02-05T13:09:42.024Z,19.17
2023-02-05T13:12:13.996Z,17.00
2023-02-05T13:14:46.493Z,21.15
2023-02-05T13:17:28.183Z,17.25
2023-02-05T13:20:01.870Z,18.48
2023-02-05T13:22:54.014Z,15.07
2023-02-05T13:26:06.695Z,24.33
2023-02-05T13:28:46.754Z,24.33
2023-02-05T13:31:24.234Z,22.50
2023-02-05T13:33:54.639Z,15.77
2023-02-05T13:36:46.300Z,17.30
2023-02-05T13:39:34.667Z,16.45
2023-02-05T13:42:48.788Z,16.80
2023-02-05T13:45:41.404Z,12.40
2023-02-05T13:48:41.210Z,19.48
2023-02-05T13:51:38.119Z,20.58
2023-02-05T13:54:38.038Z,16.38
2023-02-05T13:57:21.124Z,17.77
2023-02-05T13:59:53.060Z,17.05
2023-02-05T14:02:39.285Z,21.60
2023-02-05T14:05:07.754Z,22.00
2023-02-05T14:07:45.844Z,19.80
2023-02-05T14:10:33.372Z,23.77
2023-02-05T14:13:28.572Z,16.20
2023-02-05T14:16:00.481Z,19.48
2023-02-05T14:18:40.328Z,13.32
2023-02-05T14:21:29.583Z,14.43
2023-02-05T14:24:15.980Z,13.35
2023-02-05T14:26:51.775Z,22.00
2023-02-05T14:29:48.185Z,20.45
2023-02-05T14:32:30.478Z,14.75
2023-02-05T14:34:59.048Z,21.23
2023-02-05T14:37:38.193Z,16.92
2023-02-05T14:40:27.365Z,22.48
2023-02-05T14:43:09.615Z,21.13
2023-02-05T14:45:47.034Z,16.80
2023-02-05T14:48:30.712Z,26.17
2023-02-05T14:51:38.314Z,20.88
2023-02-05T14:54:08.003Z,27.38
2023-02-05T14:56:44.014Z,16.40
2023-02-05T14:59:29.434Z,28.55
2023-02-05T15:01:59.472Z,22.90
2023-02-05T15:04:29.807Z,22.60
2023-02-05T15:07:01.781Z,16.75
2023-02-05T15:09:50.875Z,29.00
2023-02-05T15:12:46.561Z,25.15
2023-02-05T15:15:30.446Z,20.80
2023-02-05T15:18:04.755Z,15.68
2023-02-05T15:20:36.128Z,18.50
2023-02-05T15:23:23.458Z,26.60
2023-02-05T15:26:03.754Z,17.48
2023-02-05T15:28:45.812Z,22.55
2023-02-05T15:31:41.623Z,19.08
2023-02-05T15:34:22.794Z,26.25
2023-02-05T15:37:14.335Z,17.98
2023-02-05T15:39:59.441Z,16.50
2023-02-05T15:42:37.340Z,21.00
2023-02-05T15:45:25.676Z,21.35
2023-02-05T15:48:03.896Z,22.20
2023-02-05T15:50:35.368Z,19.15
2023-02-05T15:53:32.824Z,23.98
2023-02-05T15:56:13.054Z,23.00
2023-02-05T15:58:47.604Z,18.67
2023-02-05T16:01:26.493Z,22.50
2023-02-05T16:03:54.097Z,35.08
2023-02-05T16:06:24.286Z,13.60
2023-02-05T16:08:53.666Z,13.95
2023-02-05T16:11:32.199Z,17.63
2023-02-05T16:14:10.793Z,18.02
2023-02-05T16:16:42.701Z,18.48
2023-02-05T16:19:17.648Z,20.58
2023-02-05T16:21:52.375Z,20.45
2023-02-05T16:25:01.633Z,25.35
2023-02-05T16:27:46.507Z,17.52
2023-02-05T16:30:18.704Z,26.17
2023-02-05T16:32:47.252Z,20.63
2023-02-05T16:35:34.341Z,19.38
2023-02-05T16:38:03.680Z,22.63
2023-02-05T16:40:40.736Z,19.30
2023-02-05T16:43:34.507Z,27.20
2023-02-05T16:46:22.006Z,25.40
2023-02-05T16:48:56.619Z,37.63
2023-02-05T16:51:32.952Z,19.67
2023-02-05T16:54:03.078Z,27.27
2023-02-05T16:56:35.757Z,33.00
2023-02-05T16:59:05.460Z,43.83
2023-02-05T17:01:39.139Z,19.65
2023-02-05T17:04:07.478Z,28.42
2023-02-05T17:06:37.369Z,30.38
2023-02-05T17:09:05.718Z,17.20
2023-02-05T17:11:43.733Z,23.85
2023-02-05T17:14:35.751Z,34.97
2023-02-05T17:17:25.119Z,39.05
2023-02-05T17:20:17.518Z,30.80
2023-02-05T17:23:12.523Z,31.13
2023-02-05T17:25:49.507Z,26.20
2023-02-05T17:28:20.040Z,34.38
2023-02-05T17:30:48.890Z,35.58
2023-02-05T17:33:22.414Z,22.45
2023-02-05T17:35:51.286Z,25.33
2023-02-05T17:38:26.192Z,41.97
2023-02-05T17:41:13.590Z,35.08
2023-02-05T17:43:41.266Z,41.47
2023-02-05T17:46:15.059Z,41.70
2023-02-05T17:48:44.468Z,38.38
2023-02-05T17:51:20.316Z,39.42
2023-02-05T17:53:48.904Z,46.53
2023-02-05T17:56:19.097Z,43.05
2023-02-05T17:58:46.363Z,60.47
2023-02-05T18:01:13.750Z,42.20
2023-02-05T18:03:41.519Z,36.90
2023-02-05T18:06:11.501Z,36.65
2023-02-05T18:08:38.823Z,48.88
2023-02-05T18:11:06.169Z,44.20
2023-02-05T18:13:34.058Z,40.88
2023-02-05T18:16:03.412Z,36.17
2023-02-05T18:18:32.479Z,48.53
2023-02-05T18:20:59.794Z,36.33
2023-02-05T18:23:29.435Z,39.35
2023-02-05T18:26:00.616Z,37.83
2023-02-05T18:28:28.553Z,37.72
2023-02-05T18:31:01.546Z,30.83
2023-02-05T18:33:28.981Z,40.03
2023-02-05T18:36:01.293Z,31.73
2023-02-05T18:38:31.015Z,40.72
2023-02-05T18:41:05.671Z,44.88
2023-02-05T18:43:34.235Z,33.15
2023-02-05T18:46:09.172Z,31.35
2023-02-05T18:48:37.412Z,40.05
2023-02-05T18:51:06.304Z,37.72
2023-02-05T18:53:35.291Z,25.48
2023-02-05T18:56:06.116Z,34.35
2023-02-05T18:58:34.182Z,36.47
2023-02-05T19:01:22.241Z,39.78
2023-02-05T19:03:52.736Z,51.20
2023-02-05T19:06:21.675Z,42.28
2023-02-05T19:08:49.983Z,51.60
2023-02-05T19:11:24.195Z,40.03
2023-02-05T19:14:00.049Z,42.17
2023-02-05T19:16:27.640Z,43.38
2023-02-05T19:18:55.230Z,49.65
2023-02-05T19:21:23.913Z,34.67
2023-02-05T19:23:54.119Z,37.70
2023-02-05T19:26:23.818Z,50.05
2023-02-05T19:29:02.252Z,38.60
2023-02-05T19:31:31.752Z,41.47
2023-02-05T19:34:00.104Z,48.60
2023-02-05T19:36:28.504Z,57.33
2023-02-05T19:38:56.173Z,61.38
2023-02-05T19:41:26.302Z,52.80
2023-02-05T19:44:02.155Z,48.90
2023-02-05T19:46:32.099Z,59.05
2023-02-05T19:49:05.878Z,43.40
2023-02-05T19:51:33.718Z,60.92
2023-02-05T19:54:03.000Z,54.35
2023-02-05T19:56:32.245Z,55.97
2023-02-05T19:58:59.672Z,45.90
2023-02-05T20:01:29.583Z,40.00
2023-02-05T20:03:59.861Z,55.78
2023-02-05T20:06:29.344Z,41.67
2023-02-05T20:08:57.158Z,53.42
2023-02-05T20:11:24.405Z,60.97
2023-02-05T20:13:53.569Z,52.20
2023-02-05T20:16:22.903Z,57.08
2023-02-05T20:18:56.043Z,48.80
2023-02-05T20:21:24.218Z,56.53
2023-02-05T20:23:51.517Z,60.92
2023-02-05T20:26:19.344Z,57.05
2023-02-05T20:29:06.508Z,61.85
2023-02-05T20:31:34.495Z,64.70
2023-02-05T20:34:03.097Z,56.70
2023-02-05T20:36:31.971Z,60.80
2023-02-05T20:39:00.770Z,53.33
2023-02-05T20:41:28.113Z,59.47
2023-02-05T20:43:57.837Z,59.33
2023-02-05T20:46:25.906Z,60.70
2023-02-05T20:48:53.199Z,85.95
2023-02-05T20:51:22.748Z,70.15
2023-02-05T20:53:50.429Z,72.80
2023-02-05T20:56:20.159Z,75.82
2023-02-05T20:58:47.567Z,57.42
2023-02-05T21:01:20.661Z,71.30
2023-02-05T21:03:50.880Z,76.28
2023-02-05T21:06:19.761Z,66.45
2023-02-05T21:08:49.095Z,74.88
2023-02-05T21:11:17.153Z,67.28
2023-02-05T21:13:46.469Z,68.07
2023-02-05T21:16:15.631Z,63.55
2023-02-05T21:18:47.395Z,56.88
2023-02-05T21:21:21.188Z,80.45
2023-02-05T21:23:52.291Z,74.22
2023-02-05T21:26:29.709Z,76.53
2023-02-05T21:28:59.572Z,60.92
2023-02-05T21:31:33.759Z,68.35
2023-02-05T21:34:02.404Z,77.93
2023-02-05T21:36:30.241Z,61.50
2023-02-05T21:38:57.712Z,60.78
2023-02-05T21:41:25.467Z,62.03
2023-02-05T21:43:55.668Z,65.25
2023-02-05T21:46:24.207Z,65.10
2023-02-05T21:48:54.391Z,80.85
2023-02-05T21:51:24.034Z,89.47
2023-02-05T21:53:58.739Z,59.22
2023-02-05T21:56:29.449Z,58.47
2023-02-05T21:58:57.615Z,89.88
2023-02-05T22:01:27.238Z,70.55
2023-02-05T22:04:15.506Z,76.43
2023-02-05T22:06:44.005Z,80.95
2023-02-05T22:09:13.865Z,81.38
2023-02-05T22:11:42.306Z,82.72
2023-02-05T22:14:10.456Z,104.55
2023-02-05T22:16:38.331Z,64.43
2023-02-05T22:19:06.559Z,74.60
2023-02-05T22:21:42.444Z,64.20
2023-02-05T22:24:14.843Z,60.22
2023-02-05T22:26:42.812Z,61.90
2023-02-05T22:29:13.396Z,55.00
2023-02-05T22:31:41.238Z,60.58
2023-02-05T22:34:08.710Z,77.70
2023-02-05T22:36:36.275Z,73.65
2023-02-05T22:39:05.750Z,64.43
2023-02-05T22:41:36.074Z,71.05
2023-02-05T22:44:04.993Z,66.45
2023-02-05T22:46:34.940Z,61.47
2023-02-05T22:49:03.577Z,52.22
2023-02-05T22:51:34.254Z,57.28
2023-02-05T22:54:02.093Z,58.08
2023-02-05T22:56:29.757Z,64.15
2023-02-05T22:58:57.351Z,67.43
2023-02-05T23:01:26.049Z,56.20
2023-02-05T23:03:53.804Z,62.25
2023-02-05T23:06:24.095Z,75.85
2023-02-05T23:08:53.755Z,62.30
2023-02-05T23:11:21.967Z,61.47
2023-02-05T23:13:50.347Z,64.78
2023-02-05T23:16:26.796Z,74.72
2023-02-05T23:18:57.894Z,65.10
2023-02-05T23:21:27.631Z,77.10
2023-02-05T23:23:55.075Z,76.15
2023-02-05T23:26:25.280Z,65.63
2023-02-05T23:28:54.222Z,51.70
2023-02-05T23:31:23.170Z,55.65
2023-02-05T23:33:51.434Z,66.35
2023-02-05T23:36:19.088Z,64.40
2023-02-05T23:38:47.146Z,68.20
2023-02-05T23:41:14.498Z,56.75
2023-02-05T23:43:41.785Z,61.95
2023-02-05T23:46:09.233Z,66.28
2023-02-05T23:48:36.631Z,55.33
2023-02-05T23:51:03.888Z,67.28
2023-02-05T23:53:31.136Z,63.50
2023-02-05T23:55:58.395Z,51.00
2023-02-05T23:58:27.977Z,66.85
